Gainesville, Missouri
Current Conditions -  °F | °C
As of 8:53 PM on Friday 19 Dec 2014 (Local Time) from KBPK Reporting Station
Light Rain Light Rain  
Wind Chill: 36°   Ceiling: 800
Heat Index: 36°   Visibility: 5mi
Dew Point: 35°   Wind: 3mph
Humidity: 97%   Direction: 80°E
Pressure: 30.22"   Gusts: NA
Location:  36.6°N, 92.43°W
Report Text: KBPK 200253Z AUTO 08003KT 5SM -RA BR OVC008 02/02 A3022 RMK AO2 RAE09B25 SLP238 P0000 60000 T00220017 51005
Loading
Personal Weather Stations






























Interactive Weather Map New forecast layout! Learn more

10-Day Weather Forecast

Advertisements
Track Severe Weather on mobile